createdAt,value
2023-02-21T00:02:37.453Z,20.17
2023-02-21T00:05:22.720Z,21.63
2023-02-21T00:08:08.042Z,20.65
2023-02-21T00:10:53.394Z,21.38
2023-02-21T00:13:38.185Z,22.15
2023-02-21T00:16:23.563Z,25.23
2023-02-21T00:19:08.460Z,23.27
2023-02-21T00:21:53.392Z,28.40
2023-02-21T00:24:39.092Z,28.25
2023-02-21T00:27:24.322Z,26.10
2023-02-21T00:30:09.764Z,27.92
2023-02-21T00:32:54.909Z,26.17
2023-02-21T00:35:40.138Z,31.30
2023-02-21T00:38:26.713Z,30.70
2023-02-21T00:41:12.139Z,31.15
2023-02-21T00:43:57.496Z,30.73
2023-02-21T00:46:42.832Z,31.42
2023-02-21T00:49:28.334Z,28.77
2023-02-21T00:52:14.008Z,28.77
2023-02-21T00:54:59.665Z,31.65
2023-02-21T00:57:44.717Z,29.10
2023-02-21T01:00:41.960Z,29.17
2023-02-21T01:03:27.911Z,31.40
2023-02-21T01:06:13.605Z,32.03
2023-02-21T01:09:03.107Z,28.73
2023-02-21T01:11:49.135Z,31.27
2023-02-21T01:14:34.617Z,31.13
2023-02-21T01:17:19.923Z,31.10
2023-02-21T01:20:04.743Z,29.88
2023-02-21T01:22:49.724Z,30.98
2023-02-21T01:25:35.024Z,33.10
2023-02-21T01:28:20.360Z,31.13
2023-02-21T01:31:05.843Z,29.80
2023-02-21T01:33:56.269Z,31.63
2023-02-21T01:36:41.754Z,30.40
2023-02-21T01:39:27.548Z,29.95
2023-02-21T01:42:12.867Z,31.48
2023-02-21T01:44:59.482Z,29.05
2023-02-21T01:47:44.862Z,29.10
2023-02-21T01:50:43.068Z,29.02
2023-02-21T01:53:31.595Z,28.98
2023-02-21T01:56:17.362Z,29.98
2023-02-21T01:59:03.357Z,29.48
2023-02-21T02:01:54.944Z,28.10
2023-02-21T02:04:39.941Z,28.65
2023-02-21T02:07:24.966Z,29.70
2023-02-21T02:10:09.989Z,29.60
2023-02-21T02:12:53.140Z,31.38
2023-02-21T02:15:32.724Z,28.63
2023-02-21T02:18:18.685Z,29.15
2023-02-21T02:21:16.758Z,30.40
2023-02-21T02:24:03.384Z,35.63
2023-02-21T02:27:14.601Z,31.08
2023-02-21T02:30:02.573Z,31.90
2023-02-21T02:35:32.546Z,35.35
2023-02-21T02:38:09.946Z,33.83
2023-02-21T02:40:58.564Z,35.67
2023-02-21T02:43:35.604Z,37.30
2023-02-21T02:46:14.236Z,35.95
2023-02-21T02:48:47.182Z,37.13
2023-02-21T02:51:15.297Z,35.53
2023-02-21T02:53:42.641Z,37.08
2023-02-21T02:56:11.977Z,37.30
2023-02-21T02:58:48.215Z,36.15
2023-02-21T03:01:23.677Z,37.40
2023-02-21T03:04:26.023Z,36.90
2023-02-21T03:07:07.361Z,34.35
2023-02-21T03:09:56.525Z,36.17
2023-02-21T03:12:45.467Z,37.75
2023-02-21T03:15:19.429Z,37.38
2023-02-21T03:17:52.046Z,37.63
2023-02-21T03:20:18.725Z,39.58
2023-02-21T03:22:46.225Z,37.38
2023-02-21T03:25:14.801Z,38.55
2023-02-21T03:27:42.386Z,36.42
2023-02-21T03:30:10.199Z,38.63
2023-02-21T03:32:55.417Z,36.80
2023-02-21T03:35:22.558Z,39.42
2023-02-21T03:37:52.730Z,39.80
2023-02-21T03:40:21.334Z,37.08
2023-02-21T03:45:14.378Z,36.95
2023-02-21T03:47:41.043Z,37.78
2023-02-21T03:50:08.125Z,38.13
2023-02-21T03:52:34.925Z,40.38
2023-02-21T03:55:01.496Z,41.22
2023-02-21T03:57:28.127Z,39.25
2023-02-21T03:59:54.618Z,39.85
2023-02-21T04:02:21.223Z,40.05
2023-02-21T04:04:48.735Z,36.88
2023-02-21T04:07:16.770Z,37.88
2023-02-21T04:09:43.497Z,39.15
2023-02-21T04:12:10.421Z,35.85
2023-02-21T04:14:37.301Z,37.08
2023-02-21T04:17:03.882Z,39.22
2023-02-21T04:19:30.706Z,38.08
2023-02-21T04:21:57.422Z,37.17
2023-02-21T04:24:24.162Z,36.30
2023-02-21T04:26:50.736Z,35.97
2023-02-21T04:29:17.295Z,37.45
2023-02-21T04:31:43.906Z,37.58
2023-02-21T04:34:12.397Z,36.08
2023-02-21T04:36:39.566Z,38.28
2023-02-21T04:39:06.452Z,37.17
2023-02-21T04:41:33.213Z,36.40
2023-02-21T04:43:59.856Z,36.45
2023-02-21T04:46:26.691Z,35.95
2023-02-21T04:48:54.374Z,37.72
2023-02-21T04:51:22.755Z,37.13
2023-02-21T04:53:50.412Z,37.30
2023-02-21T04:56:20.975Z,35.30
2023-02-21T04:58:48.215Z,37.88
2023-02-21T05:01:16.679Z,35.05
2023-02-21T05:03:43.791Z,33.80
2023-02-21T05:06:10.510Z,36.42
2023-02-21T05:08:37.198Z,36.00
2023-02-21T05:11:03.767Z,34.47
2023-02-21T05:13:30.441Z,35.75
2023-02-21T05:15:57.003Z,36.83
2023-02-21T05:18:28.242Z,37.10
2023-02-21T05:20:55.781Z,34.22
2023-02-21T05:23:35.792Z,37.05
2023-02-21T05:26:06.859Z,35.20
2023-02-21T05:28:33.668Z,36.15
2023-02-21T05:31:01.169Z,34.65
2023-02-21T05:33:28.174Z,32.60
2023-02-21T05:35:55.068Z,35.05
2023-02-21T05:38:23.084Z,33.35
2023-02-21T05:40:49.786Z,33.45
2023-02-21T05:43:16.463Z,32.83
2023-02-21T05:45:42.976Z,34.00
2023-02-21T05:48:09.607Z,33.85
2023-02-21T05:50:36.109Z,34.65
2023-02-21T05:53:02.929Z,33.95
2023-02-21T05:55:29.455Z,34.85
2023-02-21T05:57:56.132Z,36.78
2023-02-21T06:00:25.610Z,34.92
2023-02-21T06:02:52.553Z,35.67
2023-02-21T06:05:19.823Z,34.53
2023-02-21T06:07:46.701Z,35.83
2023-02-21T06:10:13.732Z,40.47
2023-02-21T06:12:40.322Z,34.78
2023-02-21T06:15:07.596Z,35.63
2023-02-21T06:17:36.360Z,35.70
2023-02-21T06:20:04.247Z,36.88
2023-02-21T06:22:30.815Z,38.88
2023-02-21T06:24:57.472Z,37.80
2023-02-21T06:27:24.293Z,38.22
2023-02-21T06:29:51.056Z,38.55
2023-02-21T06:32:17.612Z,36.20
2023-02-21T06:34:44.772Z,38.53
2023-02-21T06:37:11.575Z,34.85
2023-02-21T06:39:38.919Z,36.65
2023-02-21T06:42:06.474Z,35.72
2023-02-21T06:44:33.121Z,34.55
2023-02-21T06:46:59.680Z,36.25
2023-02-21T06:49:26.211Z,33.78
2023-02-21T06:51:52.678Z,37.95
2023-02-21T06:54:19.253Z,33.60
2023-02-21T06:56:45.769Z,34.47
2023-02-21T06:59:12.470Z,33.13
2023-02-21T07:01:39.277Z,33.47
2023-02-21T07:04:05.777Z,33.03
2023-02-21T07:06:33.490Z,33.42
2023-02-21T07:09:00.236Z,30.20
2023-02-21T07:11:27.480Z,30.23
2023-02-21T07:13:56.606Z,31.50
2023-02-21T07:16:23.140Z,30.35
2023-02-21T07:18:49.681Z,30.83
2023-02-21T07:21:17.641Z,32.47
2023-02-21T07:23:44.922Z,30.63
2023-02-21T07:26:12.119Z,31.10
2023-02-21T07:28:38.935Z,32.83
2023-02-21T07:31:05.711Z,30.73
2023-02-21T07:33:32.870Z,33.15
2023-02-21T07:35:59.440Z,30.40
2023-02-21T07:38:28.298Z,29.73
2023-02-21T07:40:55.868Z,31.92
2023-02-21T07:43:22.425Z,30.63
2023-02-21T07:45:48.984Z,31.13
2023-02-21T07:48:15.700Z,30.85
2023-02-21T07:50:42.883Z,30.77
2023-02-21T07:53:11.286Z,29.70
2023-02-21T07:55:37.998Z,31.63
2023-02-21T07:58:05.019Z,28.95
2023-02-21T08:00:32.013Z,31.05
2023-02-21T08:02:58.909Z,28.85
2023-02-21T08:05:25.691Z,28.85
2023-02-21T08:07:52.357Z,27.25
2023-02-21T08:10:24.532Z,28.08
2023-02-21T08:12:51.151Z,29.45
2023-02-21T08:15:17.930Z,30.02
2023-02-21T08:17:44.450Z,27.67
2023-02-21T08:20:11.346Z,28.80
2023-02-21T08:22:37.866Z,28.92
2023-02-21T08:25:04.549Z,28.48
2023-02-21T08:27:31.161Z,31.25
2023-02-21T08:29:57.913Z,31.88
2023-02-21T08:32:24.623Z,35.00
2023-02-21T08:34:51.148Z,34.28
2023-02-21T08:37:17.814Z,32.67
2023-02-21T08:39:48.664Z,32.92
2023-02-21T08:42:15.534Z,33.25
2023-02-21T08:44:46.462Z,33.00
2023-02-21T08:47:14.597Z,32.10
2023-02-21T08:49:44.995Z,35.10
2023-02-21T08:52:11.499Z,33.33
2023-02-21T08:54:38.012Z,30.65
2023-02-21T08:57:04.929Z,31.75
2023-02-21T08:59:33.644Z,30.02
2023-02-21T09:02:01.314Z,32.38
2023-02-21T09:04:28.200Z,30.88
2023-02-21T09:06:55.803Z,31.42
2023-02-21T09:09:23.438Z,28.90
2023-02-21T09:11:50.053Z,28.25
2023-02-21T09:14:17.046Z,30.67
2023-02-21T09:16:45.262Z,29.02
2023-02-21T09:19:13.507Z,29.90
2023-02-21T09:21:45.963Z,32.17
2023-02-21T09:24:12.762Z,30.50
2023-02-21T09:26:39.336Z,30.92
2023-02-21T09:29:06.018Z,29.80
2023-02-21T09:31:32.640Z,29.70
2023-02-21T09:33:59.288Z,29.73
2023-02-21T09:36:25.818Z,32.00
2023-02-21T09:38:52.675Z,31.88
2023-02-21T09:41:19.918Z,30.50
2023-02-21T09:43:51.900Z,30.15
2023-02-21T09:46:24.877Z,28.45
2023-02-21T09:48:51.994Z,27.75
2023-02-21T09:51:18.738Z,28.35
2023-02-21T09:53:47.955Z,28.23
2023-02-21T09:56:14.415Z,27.35
2023-02-21T09:58:44.394Z,28.70
2023-02-21T10:01:40.283Z,29.90
2023-02-21T10:04:15.277Z,30.90
2023-02-21T10:09:38.799Z,29.75
2023-02-21T10:12:30.703Z,32.88
2023-02-21T10:15:23.240Z,29.58
2023-02-21T10:18:32.028Z,27.15
2023-02-21T10:21:01.562Z,27.90
2023-02-21T10:23:36.286Z,30.38
2023-02-21T10:26:10.360Z,28.63
2023-02-21T10:28:37.889Z,27.25
2023-02-21T10:31:38.198Z,29.65
2023-02-21T10:34:07.737Z,26.30
2023-02-21T10:36:35.059Z,25.05
2023-02-21T10:39:11.230Z,24.00
2023-02-21T10:41:39.797Z,24.70
2023-02-21T10:44:11.132Z,23.95
2023-02-21T10:46:42.586Z,22.92
2023-02-21T10:49:22.318Z,22.58
2023-02-21T10:52:13.238Z,20.92
2023-02-21T10:54:40.355Z,23.08
2023-02-21T10:57:08.912Z,24.00
2023-02-21T10:59:38.374Z,20.95
2023-02-21T11:02:34.964Z,21.63
2023-02-21T11:05:13.649Z,21.08
2023-02-21T11:07:41.255Z,21.52
2023-02-21T11:10:30.000Z,19.83
2023-02-21T11:13:22.969Z,20.52
2023-02-21T11:16:08.377Z,20.17
2023-02-21T11:18:35.056Z,20.92
2023-02-21T11:21:15.941Z,17.65
2023-02-21T11:23:48.263Z,18.23
2023-02-21T11:26:15.148Z,18.27
2023-02-21T11:28:44.694Z,18.75
2023-02-21T11:31:29.575Z,19.00
2023-02-21T11:34:05.096Z,17.40
2023-02-21T11:36:36.881Z,17.63
2023-02-21T11:39:21.591Z,17.45
2023-02-21T11:41:56.276Z,17.45
2023-02-21T11:44:40.590Z,17.38
2023-02-21T11:47:16.717Z,17.08
2023-02-21T11:50:04.276Z,17.08
2023-02-21T11:52:37.055Z,16.50
2023-02-21T11:55:04.362Z,16.40
2023-02-21T11:57:48.634Z,15.98
2023-02-21T12:00:33.551Z,15.38
2023-02-21T12:03:10.172Z,14.52
2023-02-21T12:05:53.964Z,13.75
2023-02-21T12:08:29.750Z,12.63
2023-02-21T12:11:17.084Z,12.23
2023-02-21T12:14:03.967Z,12.75
2023-02-21T12:16:43.461Z,11.10
2023-02-21T12:19:25.045Z,12.45
2023-02-21T12:22:00.677Z,11.52
2023-02-21T12:24:40.429Z,11.32
2023-02-21T12:27:19.337Z,11.88
2023-02-21T12:30:00.765Z,11.02
2023-02-21T12:32:33.123Z,12.05
2023-02-21T12:35:27.813Z,11.40
2023-02-21T12:38:04.418Z,12.05
2023-02-21T12:40:53.433Z,11.55
2023-02-21T12:43:51.762Z,10.25
2023-02-21T12:46:22.953Z,10.57
2023-02-21T12:49:06.467Z,10.07
2023-02-21T12:51:37.433Z,10.30
2023-02-21T12:54:07.225Z,10.52
2023-02-21T12:57:01.876Z,10.30
2023-02-21T12:59:44.087Z,8.90
2023-02-21T13:02:26.520Z,9.50
2023-02-21T13:04:57.454Z,8.50
2023-02-21T13:07:26.880Z,7.88
2023-02-21T13:10:07.529Z,8.20
2023-02-21T13:13:03.363Z,8.77
2023-02-21T13:15:31.180Z,9.10
2023-02-21T13:18:18.941Z,9.25
2023-02-21T13:20:49.764Z,9.93
2023-02-21T13:23:16.400Z,10.70
2023-02-21T13:26:02.405Z,10.40
2023-02-21T13:28:30.325Z,12.32
2023-02-21T13:31:01.979Z,13.23
2023-02-21T13:33:44.788Z,14.32
2023-02-21T13:36:33.683Z,16.38
2023-02-21T13:39:36.537Z,17.65
2023-02-21T13:42:15.936Z,19.75
2023-02-21T13:44:45.537Z,18.67
2023-02-21T13:47:16.391Z,20.35
2023-02-21T13:49:51.084Z,21.08
2023-02-21T13:52:23.237Z,20.58
2023-02-21T13:55:11.369Z,19.85
2023-02-21T13:57:50.900Z,24.55
2023-02-21T14:00:29.521Z,27.60
2023-02-21T14:03:12.610Z,28.38
2023-02-21T14:05:49.627Z,30.88
2023-02-21T14:08:21.925Z,30.77
2023-02-21T14:10:59.910Z,30.52
2023-02-21T14:13:49.499Z,33.72
2023-02-21T14:16:22.636Z,36.85
2023-02-21T14:18:56.555Z,35.00
2023-02-21T14:21:30.045Z,31.40
2023-02-21T14:24:02.268Z,32.33
2023-02-21T14:26:36.436Z,33.60
2023-02-21T14:29:08.956Z,29.88
2023-02-21T14:31:52.220Z,27.35
2023-02-21T14:34:33.998Z,27.58
2023-02-21T14:37:04.897Z,28.23
2023-02-21T14:39:34.936Z,30.08
2023-02-21T14:42:04.642Z,29.75
2023-02-21T14:44:58.601Z,28.08
2023-02-21T14:47:48.281Z,27.67
2023-02-21T14:50:32.379Z,27.55
2023-02-21T14:53:28.003Z,26.70
2023-02-21T14:56:11.277Z,25.75
2023-02-21T14:59:02.478Z,25.25
2023-02-21T15:01:29.087Z,23.50
2023-02-21T15:04:29.284Z,18.88
2023-02-21T15:07:08.428Z,21.85
2023-02-21T15:09:35.034Z,20.48
2023-02-21T15:12:13.391Z,21.42
2023-02-21T15:14:47.601Z,20.65
2023-02-21T15:17:18.471Z,20.42
2023-02-21T15:19:45.010Z,22.52
2023-02-21T15:22:20.146Z,22.60
2023-02-21T15:24:58.484Z,24.27
2023-02-21T15:27:25.046Z,26.30
2023-02-21T15:30:22.394Z,26.20
2023-02-21T15:33:12.153Z,22.08
2023-02-21T15:35:55.073Z,22.88
2023-02-21T15:38:30.795Z,20.40
2023-02-21T15:41:06.497Z,21.92
2023-02-21T15:43:42.461Z,23.73
2023-02-21T15:46:14.392Z,24.15
2023-02-21T15:48:41.021Z,26.95
2023-02-21T15:51:09.546Z,26.60
2023-02-21T15:53:36.228Z,25.95
2023-02-21T15:56:18.509Z,26.27
2023-02-21T15:59:06.751Z,25.05
2023-02-21T16:01:33.415Z,30.02
2023-02-21T16:04:20.850Z,28.95
2023-02-21T16:07:07.088Z,29.05
2023-02-21T16:09:35.788Z,27.70
2023-02-21T16:14:34.611Z,32.58
2023-02-21T16:17:08.841Z,37.05
2023-02-21T16:19:35.994Z,35.38
2023-02-21T16:22:24.115Z,35.47
2023-02-21T16:24:51.042Z,36.03
2023-02-21T16:27:18.567Z,33.20
2023-02-21T16:29:45.283Z,32.50
2023-02-21T16:32:19.932Z,31.25
2023-02-21T16:34:47.074Z,31.85
2023-02-21T16:37:14.721Z,30.15
2023-02-21T16:39:42.416Z,33.35
2023-02-21T16:42:09.087Z,27.48
2023-02-21T16:44:35.620Z,25.25
2023-02-21T16:47:02.175Z,24.95
2023-02-21T16:49:29.548Z,25.95
2023-02-21T16:51:56.146Z,25.55
2023-02-21T16:54:22.680Z,24.30
2023-02-21T16:56:52.399Z,23.13
2023-02-21T16:59:20.992Z,24.30
2023-02-21T17:01:47.669Z,23.67
2023-02-21T17:04:16.188Z,24.95
2023-02-21T17:06:51.630Z,23.38
2023-02-21T17:09:20.587Z,25.20
2023-02-21T17:11:47.195Z,23.02
2023-02-21T17:14:13.801Z,24.45
2023-02-21T17:16:40.318Z,23.05
2023-02-21T17:19:06.847Z,20.95
2023-02-21T17:21:33.355Z,20.90
2023-02-21T17:24:00.010Z,20.17
2023-02-21T17:26:26.598Z,19.90
2023-02-21T17:28:53.150Z,17.63
2023-02-21T17:31:19.919Z,18.15
2023-02-21T17:33:46.571Z,18.13
2023-02-21T17:36:21.834Z,17.08
2023-02-21T17:38:48.521Z,16.92
2023-02-21T17:41:19.457Z,16.50
2023-02-21T17:43:46.555Z,16.05
2023-02-21T17:46:14.856Z,16.05
2023-02-21T17:48:42.637Z,17.65
2023-02-21T17:51:09.742Z,17.67
2023-02-21T17:53:36.355Z,14.52
2023-02-21T17:56:02.932Z,15.13
2023-02-21T17:58:32.521Z,14.43
2023-02-21T18:00:59.712Z,15.20
2023-02-21T18:03:26.454Z,14.68
2023-02-21T18:05:53.011Z,15.52
2023-02-21T18:08:19.657Z,14.70
2023-02-21T18:10:46.959Z,15.38
2023-02-21T18:13:15.742Z,14.07
2023-02-21T18:15:42.279Z,14.27
2023-02-21T18:18:08.881Z,15.05
2023-02-21T18:20:35.895Z,14.13
2023-02-21T18:23:03.511Z,15.23
2023-02-21T18:25:30.093Z,15.05
2023-02-21T18:27:56.904Z,18.05
2023-02-21T18:30:23.630Z,15.43
2023-02-21T18:32:50.948Z,17.90
2023-02-21T18:35:18.194Z,16.17
2023-02-21T18:37:47.143Z,17.42
2023-02-21T18:40:15.932Z,17.33
2023-02-21T18:42:42.885Z,16.63
2023-02-21T18:45:11.759Z,16.20
2023-02-21T18:47:38.814Z,18.40
2023-02-21T18:50:06.432Z,17.25
2023-02-21T18:52:32.969Z,18.42
2023-02-21T18:55:03.791Z,17.55
2023-02-21T18:57:30.882Z,16.45
2023-02-21T18:59:58.199Z,17.35
2023-02-21T19:02:24.735Z,17.17
2023-02-21T19:04:51.293Z,16.48
2023-02-21T19:07:18.057Z,17.25
2023-02-21T19:09:50.318Z,16.02
2023-02-21T19:12:17.105Z,18.85
2023-02-21T19:14:43.906Z,17.00
2023-02-21T19:17:10.653Z,16.30
2023-02-21T19:19:37.885Z,17.88
2023-02-21T19:22:04.978Z,17.73
2023-02-21T19:24:31.464Z,17.38
2023-02-21T19:26:58.221Z,18.90
2023-02-21T19:29:24.773Z,19.98
2023-02-21T19:31:51.432Z,19.85
2023-02-21T19:34:18.002Z,20.20
2023-02-21T19:36:44.521Z,18.58
2023-02-21T19:39:11.696Z,19.58
2023-02-21T19:41:38.519Z,18.90
2023-02-21T19:44:05.357Z,20.40
2023-02-21T19:46:32.391Z,20.02
2023-02-21T19:48:59.711Z,21.73
2023-02-21T19:51:27.516Z,20.10
2023-02-21T19:53:54.217Z,20.75
2023-02-21T19:56:20.765Z,20.27
2023-02-21T19:58:47.382Z,20.75
2023-02-21T20:01:14.410Z,20.60
2023-02-21T20:03:42.082Z,21.70
2023-02-21T20:06:08.832Z,21.90
2023-02-21T20:08:35.413Z,26.10
2023-02-21T20:11:01.946Z,23.30
2023-02-21T20:13:28.485Z,23.27
2023-02-21T20:15:55.019Z,23.83
2023-02-21T20:18:21.578Z,24.17
2023-02-21T20:20:49.581Z,21.50
2023-02-21T20:23:17.984Z,22.85
2023-02-21T20:25:44.693Z,23.65
2023-02-21T20:28:11.232Z,23.70
2023-02-21T20:30:38.514Z,23.08
2023-02-21T20:33:06.830Z,23.45
2023-02-21T20:35:33.400Z,25.83
2023-02-21T20:38:05.163Z,24.83
2023-02-21T20:40:35.314Z,24.73
2023-02-21T20:43:02.346Z,27.00
2023-02-21T20:45:28.848Z,28.13
2023-02-21T20:47:55.671Z,25.92
2023-02-21T20:50:24.050Z,28.10
2023-02-21T20:52:51.163Z,30.83
2023-02-21T20:55:22.056Z,35.45
2023-02-21T20:57:49.077Z,33.42
2023-02-21T21:00:16.107Z,37.15
2023-02-21T21:02:42.601Z,34.08
2023-02-21T21:05:13.800Z,39.42
2023-02-21T21:07:41.651Z,39.70
2023-02-21T21:10:11.415Z,40.83
2023-02-21T21:12:38.401Z,41.00
2023-02-21T21:15:05.751Z,39.92
2023-02-21T21:17:32.312Z,42.63
2023-02-21T21:19:58.945Z,40.92
2023-02-21T21:22:27.918Z,41.63
2023-02-21T21:24:55.712Z,41.25
2023-02-21T21:27:22.995Z,41.40
2023-02-21T21:29:49.839Z,43.97
2023-02-21T21:32:19.559Z,42.75
2023-02-21T21:34:48.483Z,44.92
2023-02-21T21:37:16.407Z,43.80
2023-02-21T21:39:49.211Z,43.10
2023-02-21T21:42:20.228Z,40.92
2023-02-21T21:44:52.088Z,41.17
2023-02-21T21:47:25.648Z,40.03
2023-02-21T21:49:52.685Z,40.80
2023-02-21T21:52:20.580Z,36.17
2023-02-21T21:54:47.897Z,40.10
2023-02-21T21:57:16.345Z,38.05
2023-02-21T21:59:43.638Z,40.13
2023-02-21T22:02:11.350Z,40.80
2023-02-21T22:04:39.638Z,38.95
2023-02-21T22:07:08.240Z,40.03
2023-02-21T22:09:35.469Z,39.85
2023-02-21T22:12:03.256Z,40.53
2023-02-21T22:14:29.836Z,41.08
2023-02-21T22:16:56.317Z,42.25
2023-02-21T22:19:24.321Z,45.30
2023-02-21T22:21:54.873Z,44.17
2023-02-21T22:24:24.932Z,44.10
2023-02-21T22:26:53.148Z,43.17
2023-02-21T22:29:20.136Z,44.78
2023-02-21T22:31:47.819Z,46.67
2023-02-21T22:34:23.141Z,43.50
2023-02-21T22:36:54.487Z,49.33
2023-02-21T22:39:22.084Z,48.88
2023-02-21T22:41:49.231Z,49.22
2023-02-21T22:44:16.322Z,50.83
2023-02-21T22:46:48.125Z,49.38
2023-02-21T22:49:17.718Z,46.53
2023-02-21T22:51:44.496Z,46.53
2023-02-21T22:54:14.432Z,48.42
2023-02-21T22:56:50.789Z,48.78
2023-02-21T22:59:19.287Z,49.50
2023-02-21T23:01:46.035Z,43.88
2023-02-21T23:04:25.975Z,44.92
2023-02-21T23:06:58.763Z,46.00
2023-02-21T23:09:30.046Z,45.72
2023-02-21T23:11:59.442Z,44.10
2023-02-21T23:14:27.224Z,45.42
2023-02-21T23:16:57.532Z,45.75
2023-02-21T23:19:29.155Z,46.22
2023-02-21T23:21:57.996Z,46.80
2023-02-21T23:24:24.766Z,46.63
2023-02-21T23:26:51.492Z,47.20
2023-02-21T23:29:20.613Z,46.40
2023-02-21T23:31:48.448Z,50.22
2023-02-21T23:34:15.618Z,47.47
2023-02-21T23:36:44.326Z,50.42
2023-02-21T23:41:40.909Z,48.47
2023-02-21T23:44:12.648Z,48.10
2023-02-21T23:46:42.440Z,44.65
2023-02-21T23:49:15.553Z,43.05
2023-02-21T23:51:44.275Z,44.30
2023-02-21T23:54:11.447Z,44.15
2023-02-21T23:56:40.149Z,41.47
2023-02-21T23:59:07.088Z,43.03
